createdAt,value
2018-09-10T00:00:52.320Z,61.41
2018-09-10T00:03:20.544Z,61.53
2018-09-10T00:05:48.734Z,61.48
2018-09-10T00:08:16.935Z,62.09
2018-09-10T00:10:45.128Z,61.69
2018-09-10T00:13:13.348Z,61.83
2018-09-10T00:15:41.570Z,62.10
2018-09-10T00:18:09.730Z,61.87
2018-09-10T00:20:37.906Z,62.22
2018-09-10T00:23:06.092Z,61.69
2018-09-10T00:25:34.278Z,62.10
2018-09-10T00:28:02.434Z,62.08
2018-09-10T00:30:30.619Z,62.00
2018-09-10T00:32:58.801Z,61.07
2018-09-10T00:35:26.987Z,61.21
2018-09-10T00:37:55.202Z,61.36
2018-09-10T00:40:23.427Z,61.45
2018-09-10T00:42:51.595Z,61.97
2018-09-10T00:45:19.859Z,60.42
2018-09-10T00:47:48.075Z,60.19
2018-09-10T00:50:16.255Z,59.72
2018-09-10T00:52:44.486Z,60.66
2018-09-10T00:55:12.653Z,59.71
2018-09-10T00:57:40.830Z,59.91
2018-09-10T01:00:09.040Z,59.99
2018-09-10T01:02:37.279Z,60.49
2018-09-10T01:05:05.515Z,61.04
2018-09-10T01:07:33.788Z,60.07
2018-09-10T01:10:01.965Z,61.39
2018-09-10T01:12:30.175Z,61.17
2018-09-10T01:14:58.339Z,60.54
2018-09-10T01:17:26.598Z,60.74
2018-09-10T01:19:55.134Z,60.49
2018-09-10T01:22:23.563Z,60.85
2018-09-10T01:24:51.775Z,61.95
2018-09-10T01:27:19.995Z,61.32
2018-09-10T01:29:48.193Z,61.53
2018-09-10T01:32:16.352Z,61.06
2018-09-10T01:34:49.824Z,61.55
2018-09-10T01:37:18.044Z,61.70
2018-09-10T01:39:46.253Z,61.99
2018-09-10T01:42:14.442Z,61.75
2018-09-10T01:44:42.639Z,61.33
2018-09-10T01:47:10.874Z,61.16
2018-09-10T01:49:39.079Z,62.64
2018-09-10T01:52:07.263Z,62.29
2018-09-10T01:54:35.466Z,62.45
2018-09-10T01:57:03.646Z,62.88
2018-09-10T01:59:31.842Z,63.05
2018-09-10T02:02:00.023Z,63.02
2018-09-10T02:04:28.223Z,62.80
2018-09-10T02:06:56.446Z,62.83
2018-09-10T02:09:24.642Z,62.66
2018-09-10T02:11:52.831Z,62.12
2018-09-10T02:14:21.023Z,62.85
2018-09-10T02:16:49.233Z,63.22
2018-09-10T02:19:17.406Z,62.81
2018-09-10T02:21:45.619Z,63.54
2018-09-10T02:24:13.855Z,64.23
2018-09-10T02:26:42.054Z,64.34
2018-09-10T02:29:10.306Z,63.19
2018-09-10T02:31:38.458Z,63.25
2018-09-10T02:34:06.656Z,64.48
2018-09-10T02:36:34.843Z,64.29
2018-09-10T02:39:03.055Z,63.71
2018-09-10T02:41:31.299Z,63.93
2018-09-10T02:43:59.503Z,64.30
2018-09-10T02:46:27.691Z,64.85
2018-09-10T02:48:55.883Z,64.04
2018-09-10T02:51:24.067Z,63.98
2018-09-10T02:53:52.232Z,64.91
2018-09-10T02:56:20.419Z,64.43
2018-09-10T02:58:48.615Z,64.14
2018-09-10T03:01:16.784Z,64.88
2018-09-10T03:03:44.942Z,63.97
2018-09-10T03:06:13.144Z,64.58
2018-09-10T03:08:41.359Z,65.05
2018-09-10T03:11:09.580Z,64.41
2018-09-10T03:13:37.804Z,64.50
2018-09-10T03:16:06.018Z,64.52
2018-09-10T03:18:34.217Z,64.80
2018-09-10T03:21:02.481Z,64.27
2018-09-10T03:23:30.673Z,64.45
2018-09-10T03:25:59.014Z,64.99
2018-09-10T03:28:27.170Z,65.42
2018-09-10T03:30:55.391Z,65.56
2018-09-10T03:33:23.603Z,65.66
2018-09-10T03:35:51.806Z,65.54
2018-09-10T03:38:20.001Z,65.66
2018-09-10T03:40:48.235Z,65.95
2018-09-10T03:43:16.456Z,65.48
2018-09-10T03:45:44.666Z,65.64
2018-09-10T03:48:12.871Z,64.96
2018-09-10T03:50:41.077Z,65.97
2018-09-10T03:53:09.298Z,66.00
2018-09-10T03:55:37.462Z,65.21
2018-09-10T03:58:05.662Z,65.40
2018-09-10T04:00:33.907Z,66.55
2018-09-10T04:03:02.108Z,66.21
2018-09-10T04:05:30.296Z,66.51
2018-09-10T04:07:58.545Z,66.87
2018-09-10T04:10:26.727Z,65.76
2018-09-10T04:12:54.955Z,65.66
2018-09-10T04:15:23.135Z,65.70
2018-09-10T04:17:51.314Z,65.57
2018-09-10T04:20:19.471Z,65.20
2018-09-10T04:22:47.712Z,64.84
2018-09-10T04:25:15.885Z,65.10
2018-09-10T04:27:44.141Z,64.68
2018-09-10T04:30:15.448Z,64.88
2018-09-10T04:32:43.722Z,65.01
2018-09-10T04:35:12.361Z,65.87
2018-09-10T04:37:41.123Z,65.13
2018-09-10T04:40:09.318Z,65.43
2018-09-10T04:42:37.589Z,65.28
2018-09-10T04:45:06.176Z,65.77
2018-09-10T04:47:34.383Z,66.20
2018-09-10T04:50:02.856Z,65.76
2018-09-10T04:52:31.089Z,66.31
2018-09-10T04:54:59.440Z,65.38
2018-09-10T04:57:27.695Z,65.22
2018-09-10T04:59:55.940Z,65.80
2018-09-10T05:02:24.105Z,65.72
2018-09-10T05:04:52.283Z,65.24
2018-09-10T05:07:20.439Z,64.96
2018-09-10T05:09:48.658Z,64.88
2018-09-10T05:12:16.849Z,66.00
2018-09-10T05:14:45.028Z,65.14
2018-09-10T05:17:13.179Z,65.19
2018-09-10T05:19:41.406Z,65.16
2018-09-10T05:22:09.725Z,65.51
2018-09-10T05:24:38.267Z,65.73
2018-09-10T05:27:06.461Z,65.84
2018-09-10T05:29:34.647Z,65.28
2018-09-10T05:32:02.872Z,66.42
2018-09-10T05:34:31.174Z,66.52
2018-09-10T05:36:59.386Z,66.34
2018-09-10T05:39:27.611Z,65.93
2018-09-10T05:41:55.775Z,66.32
2018-09-10T05:44:24.002Z,67.23
2018-09-10T05:46:52.298Z,66.86
2018-09-10T05:49:20.549Z,67.04
2018-09-10T05:51:48.707Z,66.91
2018-09-10T05:54:16.882Z,66.73
2018-09-10T05:56:45.078Z,67.40
2018-09-10T05:59:13.297Z,67.19
2018-09-10T06:01:41.479Z,67.22
2018-09-10T06:04:09.650Z,67.42
2018-09-10T06:06:38.845Z,67.76
2018-09-10T06:09:07.389Z,67.74
2018-09-10T06:11:35.660Z,67.29
2018-09-10T06:14:03.967Z,67.64
2018-09-10T06:16:32.143Z,67.42
2018-09-10T06:19:00.518Z,66.75
2018-09-10T06:21:28.699Z,67.52
2018-09-10T06:23:57.615Z,67.54
2018-09-10T06:26:25.910Z,68.08
2018-09-10T06:28:54.178Z,68.01
2018-09-10T06:31:22.385Z,68.10
2018-09-10T06:33:50.558Z,66.86
2018-09-10T06:36:18.762Z,67.22
2018-09-10T06:38:46.988Z,68.08
2018-09-10T06:41:15.204Z,67.38
2018-09-10T06:43:43.386Z,67.08
2018-09-10T06:46:11.687Z,67.47
2018-09-10T06:48:39.880Z,68.36
2018-09-10T06:51:07.989Z,67.46
2018-09-10T06:53:36.229Z,68.44
2018-09-10T06:56:05.279Z,67.45
2018-09-10T06:58:34.195Z,67.86
2018-09-10T07:01:02.567Z,67.89
2018-09-10T07:03:30.749Z,67.83
2018-09-10T07:05:58.954Z,67.01
2018-09-10T07:08:27.367Z,68.04
2018-09-10T07:10:55.563Z,67.59
2018-09-10T07:13:24.126Z,66.78
2018-09-10T07:15:52.579Z,67.17
2018-09-10T07:18:20.759Z,67.18
2018-09-10T07:20:49.016Z,67.71
2018-09-10T07:23:17.184Z,66.96
2018-09-10T07:25:45.372Z,66.97
2018-09-10T07:28:13.734Z,67.44
2018-09-10T07:30:41.973Z,68.53
2018-09-10T07:33:10.179Z,66.20
2018-09-10T07:35:38.405Z,65.55
2018-09-10T07:38:06.626Z,66.63
2018-09-10T07:40:34.879Z,66.19
2018-09-10T07:43:03.062Z,66.88
2018-09-10T07:45:31.292Z,66.53
2018-09-10T07:47:59.556Z,66.55
2018-09-10T07:50:27.737Z,66.85
2018-09-10T07:52:55.935Z,66.30
2018-09-10T07:55:24.159Z,66.43
2018-09-10T07:57:52.318Z,66.34
2018-09-10T08:00:20.499Z,65.28
2018-09-10T08:02:49.051Z,66.30
2018-09-10T08:05:17.287Z,65.76
2018-09-10T08:07:45.453Z,65.42
2018-09-10T08:10:13.671Z,66.20
2018-09-10T08:12:41.894Z,66.17
2018-09-10T08:15:10.124Z,66.67
2018-09-10T08:17:38.377Z,66.33
2018-09-10T08:20:06.667Z,67.49
2018-09-10T08:22:34.898Z,67.36
2018-09-10T08:25:03.103Z,67.57
2018-09-10T08:27:31.249Z,67.21
2018-09-10T08:29:59.515Z,67.90
2018-09-10T08:32:27.726Z,67.98
2018-09-10T08:34:55.986Z,67.48
2018-09-10T08:37:24.171Z,67.23
2018-09-10T08:39:52.372Z,67.87
2018-09-10T08:42:20.538Z,67.87
2018-09-10T08:44:48.742Z,67.00
2018-09-10T08:47:16.977Z,66.85
2018-09-10T08:49:45.181Z,67.54
2018-09-10T08:52:13.359Z,66.80
2018-09-10T08:54:42.011Z,67.34
2018-09-10T08:57:09.832Z,67.34
2018-09-10T08:59:38.055Z,67.96
2018-09-10T09:02:07.364Z,66.86
2018-09-10T09:04:35.608Z,68.36
2018-09-10T09:07:03.773Z,68.50
2018-09-10T09:09:31.985Z,69.47
2018-09-10T09:12:00.276Z,69.05
2018-09-10T09:14:28.495Z,69.82
2018-09-10T09:16:56.687Z,69.73
2018-09-10T09:19:24.867Z,69.49
2018-09-10T09:21:53.236Z,69.31
2018-09-10T09:24:21.459Z,70.42
2018-09-10T09:26:49.672Z,69.99
2018-09-10T09:29:17.866Z,70.01
2018-09-10T09:31:46.055Z,69.62
2018-09-10T09:34:14.282Z,69.38
2018-09-10T09:36:47.807Z,68.45
2018-09-10T09:39:21.297Z,67.79
2018-09-10T09:41:54.743Z,67.44
2018-09-10T09:44:28.295Z,68.04
2018-09-10T09:46:56.475Z,67.81
2018-09-10T09:49:24.683Z,68.79
2018-09-10T09:51:52.911Z,68.00
2018-09-10T09:54:21.144Z,67.86
2018-09-10T09:56:49.322Z,66.97
2018-09-10T09:59:17.519Z,66.93
2018-09-10T10:01:52.025Z,66.31
2018-09-10T10:04:20.369Z,65.48
2018-09-10T10:06:48.478Z,66.71
2018-09-10T10:09:16.667Z,65.38
2018-09-10T10:11:44.946Z,66.89
2018-09-10T10:14:13.076Z,64.37
2018-09-10T10:16:41.260Z,64.53
2018-09-10T10:19:09.479Z,63.22
2018-09-10T10:21:37.672Z,64.02
2018-09-10T10:24:05.854Z,63.55
2018-09-10T10:26:34.044Z,62.20
2018-09-10T10:29:02.214Z,63.16
2018-09-10T10:31:30.447Z,62.92
2018-09-10T10:33:58.627Z,63.18
2018-09-10T10:36:26.874Z,62.09
2018-09-10T10:38:55.179Z,61.92
2018-09-10T10:41:23.350Z,62.08
2018-09-10T10:43:51.612Z,61.85
2018-09-10T10:46:19.795Z,59.14
2018-09-10T10:48:47.962Z,59.98
2018-09-10T10:51:16.219Z,59.59
2018-09-10T10:53:44.473Z,59.00
2018-09-10T10:56:12.795Z,59.88
2018-09-10T10:58:40.982Z,59.06
2018-09-10T11:01:09.201Z,58.54
2018-09-10T11:03:37.481Z,58.09
2018-09-10T11:06:05.698Z,58.55
2018-09-10T11:08:33.980Z,58.92
2018-09-10T11:11:02.153Z,59.15
2018-09-10T11:13:30.368Z,59.37
2018-09-10T11:15:58.549Z,59.03
2018-09-10T11:18:26.855Z,59.37
2018-09-10T11:20:55.102Z,60.19
2018-09-10T11:23:23.297Z,57.65
2018-09-10T11:25:51.583Z,57.40
2018-09-10T11:28:19.796Z,58.35
2018-09-10T11:30:48.154Z,59.73
2018-09-10T11:33:16.327Z,59.13
2018-09-10T11:35:44.543Z,59.19
2018-09-10T11:38:12.724Z,58.62
2018-09-10T11:40:40.959Z,57.46
2018-09-10T11:43:09.318Z,59.04
2018-09-10T11:45:37.532Z,58.64
2018-09-10T11:48:06.180Z,57.53
2018-09-10T11:50:34.664Z,57.42
2018-09-10T11:53:02.843Z,57.75
2018-09-10T11:55:31.134Z,55.94
2018-09-10T11:57:59.293Z,55.21
2018-09-10T12:00:27.447Z,53.84
2018-09-10T12:02:55.670Z,54.66
2018-09-10T12:05:23.911Z,54.25
2018-09-10T12:07:52.181Z,53.33
2018-09-10T12:10:20.339Z,53.71
2018-09-10T12:12:48.535Z,53.98
2018-09-10T12:15:16.703Z,53.98
2018-09-10T12:17:44.905Z,54.78
2018-09-10T12:20:13.107Z,51.71
2018-09-10T12:22:41.315Z,53.83
2018-09-10T12:25:09.514Z,52.75
2018-09-10T12:27:37.700Z,53.27
2018-09-10T12:30:05.987Z,52.30
2018-09-10T12:32:34.184Z,53.34
2018-09-10T12:35:02.372Z,52.89
2018-09-10T12:37:30.563Z,53.69
2018-09-10T12:39:58.761Z,54.05
2018-09-10T12:42:26.967Z,55.27
2018-09-10T12:44:55.168Z,55.44
2018-09-10T12:47:23.374Z,55.09
2018-09-10T12:49:51.535Z,54.10
2018-09-10T12:52:19.723Z,55.24
2018-09-10T12:54:47.911Z,54.65
2018-09-10T12:57:16.132Z,55.51
2018-09-10T12:59:44.363Z,54.43
2018-09-10T13:02:12.551Z,56.45
2018-09-10T13:04:40.786Z,54.34
2018-09-10T13:07:09.087Z,54.65
2018-09-10T13:09:37.329Z,54.52
2018-09-10T13:12:05.922Z,54.44
2018-09-10T13:14:34.239Z,54.15
2018-09-10T13:17:02.744Z,53.09
2018-09-10T13:19:31.648Z,52.79
2018-09-10T13:21:59.811Z,53.88
2018-09-10T13:24:28.214Z,53.52
2018-09-10T13:26:56.855Z,53.61
2018-09-10T13:29:25.065Z,53.79
2018-09-10T13:31:53.430Z,53.84
2018-09-10T13:34:21.792Z,52.91
2018-09-10T13:36:50.216Z,53.94
2018-09-10T13:39:18.581Z,53.99
2018-09-10T13:41:46.812Z,54.62
2018-09-10T13:44:14.992Z,54.82
2018-09-10T13:46:43.610Z,54.59
2018-09-10T13:49:11.927Z,53.63
2018-09-10T13:51:40.530Z,53.75
2018-09-10T13:54:09.026Z,53.89
2018-09-10T13:56:37.389Z,53.89
2018-09-10T13:59:05.880Z,54.71
2018-09-10T14:01:34.066Z,54.04
2018-09-10T14:04:02.274Z,53.03
2018-09-10T14:06:30.451Z,53.42
2018-09-10T14:08:58.623Z,53.74
2018-09-10T14:11:26.786Z,53.07
2018-09-10T14:13:55.046Z,54.80
2018-09-10T14:16:23.247Z,54.31
2018-09-10T14:18:51.572Z,54.06
2018-09-10T14:21:19.856Z,54.48
2018-09-10T14:23:48.016Z,54.26
2018-09-10T14:26:16.222Z,54.12
2018-09-10T14:28:44.662Z,54.77
2018-09-10T14:31:12.938Z,55.13
2018-09-10T14:33:41.449Z,54.83
2018-09-10T14:36:09.751Z,54.23
2018-09-10T14:38:38.031Z,54.46
2018-09-10T14:41:06.469Z,53.82
2018-09-10T14:43:34.719Z,55.06
2018-09-10T14:46:02.894Z,55.67
2018-09-10T14:48:31.370Z,55.37
2018-09-10T14:50:59.648Z,54.66
2018-09-10T14:53:27.830Z,54.60
2018-09-10T14:55:56.030Z,54.45
2018-09-10T14:58:24.304Z,54.97
2018-09-10T15:00:52.472Z,54.63
2018-09-10T15:03:20.675Z,55.04
2018-09-10T15:05:48.913Z,54.61
2018-09-10T15:08:17.118Z,54.87
2018-09-10T15:10:45.785Z,54.96
2018-09-10T15:13:13.955Z,54.20
2018-09-10T15:15:42.141Z,55.43
2018-09-10T15:18:10.548Z,55.00
2018-09-10T15:20:38.843Z,55.25
2018-09-10T15:23:07.184Z,54.41
2018-09-10T15:25:35.350Z,54.76
2018-09-10T15:28:03.550Z,54.44
2018-09-10T15:30:31.747Z,54.71
2018-09-10T15:32:59.978Z,55.83
2018-09-10T15:35:28.191Z,56.22
2018-09-10T15:37:56.355Z,55.64
2018-09-10T15:40:24.559Z,55.29
2018-09-10T15:42:52.768Z,55.97
2018-09-10T15:45:20.983Z,56.16
2018-09-10T15:47:49.134Z,56.29
2018-09-10T15:50:17.319Z,56.20
2018-09-10T15:52:45.640Z,56.26
2018-09-10T15:55:14.079Z,55.75
2018-09-10T15:57:42.301Z,56.67
2018-09-10T16:00:10.936Z,55.88
2018-09-10T16:02:39.063Z,56.96
2018-09-10T16:05:07.578Z,56.92
2018-09-10T16:07:35.830Z,56.16
2018-09-10T16:10:04.071Z,57.35
2018-09-10T16:12:32.303Z,57.77
2018-09-10T16:15:00.438Z,57.67
2018-09-10T16:17:28.624Z,57.19
2018-09-10T16:19:56.830Z,58.15
2018-09-10T16:22:25.074Z,56.63
2018-09-10T16:24:53.291Z,58.00
2018-09-10T16:27:21.549Z,57.24
2018-09-10T16:29:49.663Z,57.46
2018-09-10T16:32:17.853Z,58.79
2018-09-10T16:34:46.056Z,57.56
2018-09-10T16:37:14.232Z,59.29
2018-09-10T16:39:42.494Z,57.99
2018-09-10T16:42:10.679Z,57.82
2018-09-10T16:44:39.619Z,57.05
2018-09-10T16:47:07.927Z,58.59
2018-09-10T16:49:36.168Z,58.49
2018-09-10T16:52:04.395Z,58.26
2018-09-10T16:54:32.646Z,57.21
2018-09-10T16:57:00.785Z,57.30
2018-09-10T16:59:28.983Z,57.08
2018-09-10T17:01:57.211Z,57.22
2018-09-10T17:04:25.418Z,57.61
2018-09-10T17:06:53.643Z,59.02
2018-09-10T17:09:21.944Z,58.80
2018-09-10T17:11:50.168Z,59.56
2018-09-10T17:14:18.592Z,60.68
2018-09-10T17:16:46.860Z,61.55
2018-09-10T17:19:15.173Z,62.33
2018-09-10T17:21:43.447Z,62.50
2018-09-10T17:24:11.722Z,62.30
2018-09-10T17:26:40.213Z,60.83
2018-09-10T17:29:08.485Z,62.95
2018-09-10T17:31:38.995Z,63.22
2018-09-10T17:34:07.300Z,62.78
2018-09-10T17:36:35.559Z,63.75
2018-09-10T17:39:04.627Z,62.94
2018-09-10T17:41:32.955Z,63.17
2018-09-10T17:44:01.293Z,63.70
2018-09-10T17:46:29.524Z,63.45
2018-09-10T17:48:57.799Z,63.97
2018-09-10T17:51:26.009Z,63.25
2018-09-10T17:53:54.288Z,63.81
2018-09-10T17:56:22.565Z,63.99
2018-09-10T17:58:50.890Z,63.55
2018-09-10T18:01:19.152Z,64.40
2018-09-10T18:03:47.415Z,64.49
2018-09-10T18:06:15.707Z,64.69
2018-09-10T18:08:43.923Z,63.97
2018-09-10T18:11:12.296Z,64.88
2018-09-10T18:13:40.661Z,64.88
2018-09-10T18:16:09.098Z,64.54
2018-09-10T18:18:37.425Z,65.28
2018-09-10T18:21:05.689Z,66.07
2018-09-10T18:23:34.104Z,65.83
2018-09-10T18:26:02.436Z,64.83
2018-09-10T18:28:30.645Z,66.24
2018-09-10T18:30:58.943Z,66.46
2018-09-10T18:33:27.212Z,66.65
2018-09-10T18:35:55.479Z,66.27
2018-09-10T18:38:30.253Z,66.72
2018-09-10T18:40:58.423Z,66.65
2018-09-10T18:43:26.648Z,67.09
2018-09-10T18:45:55.052Z,66.72
2018-09-10T18:48:23.273Z,66.73
2018-09-10T18:50:51.439Z,66.34
2018-09-10T18:53:19.661Z,67.93
2018-09-10T18:55:47.883Z,66.58
2018-09-10T18:58:16.055Z,67.61
2018-09-10T19:00:44.304Z,66.53
2018-09-10T19:03:12.470Z,66.69
2018-09-10T19:05:40.687Z,67.73
2018-09-10T19:08:08.882Z,67.28
2018-09-10T19:10:37.098Z,67.36
2018-09-10T19:13:05.385Z,66.93
2018-09-10T19:15:33.588Z,66.84
2018-09-10T19:18:01.843Z,67.11
2018-09-10T19:20:29.975Z,67.45
2018-09-10T19:22:58.139Z,66.69
2018-09-10T19:25:26.323Z,67.10
2018-09-10T19:27:54.511Z,68.46
2018-09-10T19:30:22.781Z,67.55
2018-09-10T19:32:51.125Z,68.28
2018-09-10T19:35:19.474Z,68.86
2018-09-10T19:37:47.656Z,68.53
2018-09-10T19:40:15.875Z,67.96
2018-09-10T19:42:44.042Z,67.96
2018-09-10T19:45:12.247Z,67.31
2018-09-10T19:47:40.518Z,68.32
2018-09-10T19:50:08.755Z,67.46
2018-09-10T19:52:36.987Z,68.27
2018-09-10T19:55:05.223Z,67.53
2018-09-10T19:57:33.420Z,68.15
2018-09-10T20:00:01.623Z,68.63
2018-09-10T20:02:29.831Z,67.91
2018-09-10T20:04:58.035Z,68.42
2018-09-10T20:07:26.219Z,68.30
2018-09-10T20:09:54.443Z,67.80
2018-09-10T20:12:22.654Z,66.94
2018-09-10T20:14:50.885Z,67.16
2018-09-10T20:17:19.086Z,67.70
2018-09-10T20:19:47.258Z,66.73
2018-09-10T20:22:17.013Z,68.01
2018-09-10T20:24:45.204Z,67.57
2018-09-10T20:27:13.483Z,67.30
2018-09-10T20:29:41.770Z,67.27
2018-09-10T20:32:09.987Z,67.26
2018-09-10T20:34:38.198Z,66.75
2018-09-10T20:37:06.388Z,67.56
2018-09-10T20:39:34.596Z,67.01
2018-09-10T20:42:02.903Z,67.11
2018-09-10T20:44:31.151Z,66.83
2018-09-10T20:46:59.367Z,67.83
2018-09-10T20:49:27.565Z,66.99
2018-09-10T20:51:55.845Z,67.15
2018-09-10T20:54:24.050Z,67.15
2018-09-10T20:56:52.238Z,68.20
2018-09-10T20:59:20.431Z,68.26
2018-09-10T21:01:50.317Z,67.69
2018-09-10T21:04:18.556Z,67.59
2018-09-10T21:06:46.770Z,67.63
2018-09-10T21:09:15.023Z,67.42
2018-09-10T21:11:43.213Z,67.77
2018-09-10T21:14:11.589Z,66.51
2018-09-10T21:16:39.830Z,64.84
2018-09-10T21:19:08.187Z,64.64
2018-09-10T21:21:36.381Z,64.50
2018-09-10T21:24:04.725Z,63.00
2018-09-10T21:26:32.924Z,63.91
2018-09-10T21:29:01.171Z,63.91
2018-09-10T21:31:29.619Z,63.68
2018-09-10T21:33:57.953Z,63.31
2018-09-10T21:36:26.232Z,63.93
2018-09-10T21:38:54.591Z,62.91
2018-09-10T21:41:22.850Z,62.92
2018-09-10T21:43:51.107Z,62.15
2018-09-10T21:46:19.286Z,62.29
2018-09-10T21:48:47.503Z,62.41
2018-09-10T21:51:15.707Z,62.25
2018-09-10T21:53:44.253Z,62.55
2018-09-10T21:56:12.466Z,62.68
2018-09-10T21:58:40.789Z,63.91
2018-09-10T22:01:09.203Z,63.67
2018-09-10T22:03:37.543Z,63.79
2018-09-10T22:06:05.704Z,64.29
2018-09-10T22:08:33.898Z,63.75
2018-09-10T22:11:02.135Z,64.18
2018-09-10T22:13:30.374Z,64.55
2018-09-10T22:15:58.571Z,64.73
2018-09-10T22:18:26.799Z,65.13
2018-09-10T22:20:55.010Z,65.19
2018-09-10T22:23:23.207Z,64.72
2018-09-10T22:25:51.471Z,65.38
2018-09-10T22:28:19.646Z,65.42
2018-09-10T22:30:47.831Z,64.85
2018-09-10T22:33:15.989Z,65.14
2018-09-10T22:35:44.158Z,64.63
2018-09-10T22:38:12.396Z,63.93
2018-09-10T22:40:40.568Z,63.82
2018-09-10T22:43:08.780Z,63.85
2018-09-10T22:45:36.979Z,64.19
2018-09-10T22:48:05.536Z,64.30
2018-09-10T22:50:33.782Z,64.38
2018-09-10T22:53:01.972Z,63.25
2018-09-10T22:55:30.507Z,63.57
2018-09-10T22:57:58.671Z,64.29
2018-09-10T23:00:26.850Z,64.69
2018-09-10T23:02:55.066Z,64.00
2018-09-10T23:05:23.263Z,63.77
2018-09-10T23:07:51.519Z,63.69
2018-09-10T23:10:19.688Z,64.58
2018-09-10T23:12:47.882Z,64.51
2018-09-10T23:15:16.067Z,64.12
2018-09-10T23:17:44.227Z,63.99
2018-09-10T23:20:12.410Z,64.42
2018-09-10T23:22:40.654Z,64.48
2018-09-10T23:25:08.852Z,63.81
2018-09-10T23:27:37.080Z,64.65
2018-09-10T23:30:05.299Z,64.66
2018-09-10T23:32:34.360Z,63.65
2018-09-10T23:35:02.523Z,64.50
2018-09-10T23:37:30.753Z,64.55
2018-09-10T23:39:58.943Z,64.87
2018-09-10T23:42:27.164Z,64.32
2018-09-10T23:44:55.374Z,64.63
2018-09-10T23:47:23.549Z,64.46
2018-09-10T23:49:51.755Z,64.81
2018-09-10T23:52:19.964Z,65.36
2018-09-10T23:54:48.139Z,65.25
2018-09-10T23:57:16.336Z,65.72
2018-09-10T23:59:44.524Z,66.37
